Big Sandy, Montana
Current Conditions -  °F | °C
As of 4:53 PM on Wednesday 22 Oct 2014 (Local Time) from KHVR Reporting Station
Clear Clear  
Wind Chill: 17°   Ceiling: Unl
Heat Index: 17°   Visibility: 10mi
Dew Point:   Wind: 16mph
Humidity: 35%   Direction: 230°SW
Pressure: 29.82"   Gusts: NA
Location:  48.18°N, 110.11°W
Report Text: KHVR 222253Z AUTO 23014KT 10SM CLR 17/01 A2982 RMK AO2 PK WND 23026/2210 SLP099 T01670011
Loading
Personal Weather Stations






























Interactive Weather Map
Tropical Storm Tracking
New forecast layout! Learn more

10-Day Weather Forecast

Advertisements
Track Severe Weather on mobile